APG691 RPLL-RPMY
Flight info
| Callsign | APG691 |
|---|---|
| Flight time | 1h 6m |
| Altitude | 31000 |
| Route | IPATA2R IPATA W25 BATAY W8 MCT W6A SAGOL SAGOL4A |
| Aircraft | A320/M-SDE3FGHIRWY/LB1 |
Departure
| Time | 2026-05-09 01:17 |
|---|---|
| Airport | Ninoy Aquino International Airport (RPLL) |
Arrival
| Time | 2026-05-09 02:23 |
|---|---|
| Airport | Laguindingan International Airport (RPMY) |
| Time | Latitude | Longitude | Altitude | Speed | Heading |
|---|---|---|---|---|---|
| 2026-05-09 00:41 | 14.50855 | 121.01279 | 82 ft | 0 kts | 330° |
| 2026-05-09 01:02 | 14.50849 | 121.01283 | 82 ft | 2 kts | 337° |
| 2026-05-09 01:02 | 14.50835 | 121.01289 | 82 ft | 2 kts | 329° |
| 2026-05-09 01:02 | 14.50822 | 121.01296 | 82 ft | 2 kts | 332° |
| 2026-05-09 01:03 | 14.50808 | 121.01304 | 82 ft | 2 kts | 331° |
| 2026-05-09 01:03 | 14.50795 | 121.01311 | 82 ft | 2 kts | 331° |
| 2026-05-09 01:03 | 14.50787 | 121.01316 | 82 ft | 2 kts | 329° |
| 2026-05-09 01:03 | 14.50777 | 121.01327 | 82 ft | 2 kts | 298° |
| 2026-05-09 01:04 | 14.50772 | 121.01341 | 82 ft | 2 kts | 273° |
| 2026-05-09 01:04 | 14.50774 | 121.01356 | 82 ft | 2 kts | 248° |
| 2026-05-09 01:04 | 14.50777 | 121.01363 | 82 ft | 0 kts | 237° |
| 2026-05-09 01:04 | 14.50765 | 121.01341 | 82 ft | 4 kts | 240° |
| 2026-05-09 01:05 | 14.50759 | 121.01329 | 82 ft | 0 kts | 240° |
| 2026-05-09 01:07 | 14.50756 | 121.01326 | 82 ft | 1 kts | 229° |
| 2026-05-09 01:08 | 14.50742 | 121.01316 | 82 ft | 3 kts | 202° |
| 2026-05-09 01:08 | 14.50709 | 121.01316 | 82 ft | 4 kts | 167° |
| 2026-05-09 01:08 | 14.50676 | 121.01315 | 82 ft | 5 kts | 206° |
| 2026-05-09 01:08 | 14.50650 | 121.01284 | 82 ft | 6 kts | 240° |
| 2026-05-09 01:09 | 14.50623 | 121.01235 | 82 ft | 9 kts | 240° |
| 2026-05-09 01:09 | 14.50583 | 121.01163 | 82 ft | 12 kts | 240° |
| 2026-05-09 01:09 | 14.50538 | 121.01083 | 82 ft | 13 kts | 240° |
| 2026-05-09 01:09 | 14.50490 | 121.00997 | 82 ft | 14 kts | 240° |
| 2026-05-09 01:10 | 14.50440 | 121.00906 | 82 ft | 14 kts | 240° |
| 2026-05-09 01:10 | 14.50387 | 121.00811 | 82 ft | 15 kts | 240° |
| 2026-05-09 01:10 | 14.50332 | 121.00713 | 82 ft | 16 kts | 240° |
| 2026-05-09 01:10 | 14.50276 | 121.00611 | 82 ft | 16 kts | 240° |
| 2026-05-09 01:11 | 14.50218 | 121.00508 | 82 ft | 16 kts | 240° |
| 2026-05-09 01:11 | 14.50160 | 121.00403 | 82 ft | 17 kts | 240° |
| 2026-05-09 01:11 | 14.50101 | 121.00294 | 82 ft | 17 kts | 240° |
| 2026-05-09 01:11 | 14.50039 | 121.00185 | 82 ft | 17 kts | 240° |
| 2026-05-09 01:12 | 14.49978 | 121.00074 | 82 ft | 18 kts | 240° |
| 2026-05-09 01:12 | 14.49931 | 120.99990 | 82 ft | 9 kts | 240° |
| 2026-05-09 01:12 | 14.49896 | 120.99957 | 82 ft | 7 kts | 187° |
| 2026-05-09 01:12 | 14.49872 | 120.99968 | 82 ft | 0 kts | 150° |
| 2026-05-09 01:13 | 14.49870 | 120.99969 | 82 ft | 0 kts | 150° |
| 2026-05-09 01:13 | 14.49869 | 120.99970 | 82 ft | 0 kts | 150° |
| 2026-05-09 01:14 | 14.49864 | 120.99972 | 82 ft | 3 kts | 150° |
| 2026-05-09 01:14 | 14.49827 | 120.99994 | 82 ft | 8 kts | 150° |
| 2026-05-09 01:15 | 14.49798 | 121.00031 | 82 ft | 7 kts | 92° |
| 2026-05-09 01:15 | 14.49822 | 121.00084 | 82 ft | 8 kts | 61° |
| 2026-05-09 01:15 | 14.49855 | 121.00142 | 82 ft | 9 kts | 57° |
| 2026-05-09 01:15 | 14.49864 | 121.00156 | 82 ft | 0 kts | 60° |
| 2026-05-09 01:16 | 14.49868 | 121.00165 | 82 ft | 1 kts | 60° |
| 2026-05-09 01:16 | 14.49914 | 121.00246 | 82 ft | 41 kts | 60° |
| 2026-05-09 01:16 | 14.50178 | 121.00725 | 82 ft | 108 kts | 60° |
| 2026-05-09 01:17 | 14.51231 | 121.02599 | 512 ft | 170 kts | 62° |
| 2026-05-09 01:17 | 14.51785 | 121.03679 | 1110 ft | 173 kts | 60° |
| 2026-05-09 01:17 | 14.52382 | 121.04724 | 1810 ft | 169 kts | 60° |
| 2026-05-09 01:17 | 14.53013 | 121.05803 | 2245 ft | 180 kts | 60° |
| 2026-05-09 01:18 | 14.53679 | 121.06938 | 2506 ft | 193 kts | 59° |
| 2026-05-09 01:18 | 14.54401 | 121.08167 | 2748 ft | 208 kts | 60° |
| 2026-05-09 01:18 | 14.55167 | 121.09531 | 2949 ft | 228 kts | 62° |
| 2026-05-09 01:18 | 14.55944 | 121.11006 | 3241 ft | 244 kts | 62° |
| 2026-05-09 01:19 | 14.56754 | 121.12611 | 3617 ft | 257 kts | 67° |
| 2026-05-09 01:19 | 14.57302 | 121.14372 | 4221 ft | 260 kts | 78° |
| 2026-05-09 01:19 | 14.57264 | 121.16227 | 4850 ft | 265 kts | 106° |
| 2026-05-09 01:19 | 14.56339 | 121.17872 | 5505 ft | 271 kts | 132° |
| 2026-05-09 01:20 | 14.54922 | 121.19174 | 6196 ft | 274 kts | 136° |
| 2026-05-09 01:20 | 14.53474 | 121.20467 | 6881 ft | 277 kts | 136° |
| 2026-05-09 01:20 | 14.52036 | 121.21761 | 7560 ft | 280 kts | 136° |
| 2026-05-09 01:20 | 14.50563 | 121.23093 | 8258 ft | 282 kts | 135° |
| 2026-05-09 01:21 | 14.49084 | 121.24438 | 8935 ft | 285 kts | 135° |
| 2026-05-09 01:21 | 14.47601 | 121.25789 | 9606 ft | 288 kts | 135° |
| 2026-05-09 01:21 | 14.46092 | 121.27165 | 10234 ft | 291 kts | 135° |
| 2026-05-09 01:21 | 14.44544 | 121.28579 | 10636 ft | 304 kts | 135° |
| 2026-05-09 01:22 | 14.42923 | 121.30061 | 10906 ft | 320 kts | 136° |
| 2026-05-09 01:22 | 14.41227 | 121.31612 | 11165 ft | 335 kts | 136° |
| 2026-05-09 01:22 | 14.39434 | 121.33246 | 11463 ft | 348 kts | 136° |
| 2026-05-09 01:22 | 14.37593 | 121.34924 | 11947 ft | 353 kts | 136° |
| 2026-05-09 01:23 | 14.35738 | 121.36613 | 12481 ft | 357 kts | 136° |
| 2026-05-09 01:23 | 14.33878 | 121.38309 | 12978 ft | 360 kts | 136° |
| 2026-05-09 01:23 | 14.31999 | 121.40020 | 13472 ft | 363 kts | 136° |
| 2026-05-09 01:23 | 14.30102 | 121.41748 | 13969 ft | 365 kts | 136° |
| 2026-05-09 01:24 | 14.28186 | 121.43492 | 14469 ft | 367 kts | 136° |
| 2026-05-09 01:24 | 14.26274 | 121.45234 | 14954 ft | 370 kts | 136° |
| 2026-05-09 01:24 | 14.24344 | 121.46993 | 15409 ft | 373 kts | 136° |
| 2026-05-09 01:24 | 14.22393 | 121.48769 | 15851 ft | 375 kts | 136° |
| 2026-05-09 01:25 | 14.20439 | 121.50547 | 16279 ft | 378 kts | 136° |
| 2026-05-09 01:25 | 14.18444 | 121.52364 | 16719 ft | 380 kts | 136° |
| 2026-05-09 01:25 | 14.16472 | 121.54160 | 17109 ft | 383 kts | 136° |
| 2026-05-09 01:25 | 14.14472 | 121.55979 | 17513 ft | 386 kts | 136° |
| 2026-05-09 01:26 | 14.12434 | 121.57835 | 17918 ft | 388 kts | 136° |
| 2026-05-09 01:26 | 14.10406 | 121.59679 | 18297 ft | 390 kts | 136° |
| 2026-05-09 01:26 | 14.08371 | 121.61530 | 18683 ft | 392 kts | 136° |
| 2026-05-09 01:26 | 14.06315 | 121.63399 | 19054 ft | 394 kts | 136° |
| 2026-05-09 01:27 | 14.04251 | 121.65276 | 19436 ft | 396 kts | 136° |
| 2026-05-09 01:27 | 14.02194 | 121.67146 | 19786 ft | 398 kts | 136° |
| 2026-05-09 01:27 | 14.00099 | 121.69050 | 20132 ft | 401 kts | 137° |
| 2026-05-09 01:27 | 13.98005 | 121.70953 | 20478 ft | 403 kts | 137° |
| 2026-05-09 01:28 | 13.95912 | 121.72854 | 20806 ft | 405 kts | 137° |
| 2026-05-09 01:28 | 13.93784 | 121.74789 | 21132 ft | 407 kts | 137° |
| 2026-05-09 01:28 | 13.91651 | 121.76724 | 21453 ft | 410 kts | 137° |
| 2026-05-09 01:28 | 13.89508 | 121.78669 | 21770 ft | 412 kts | 137° |
| 2026-05-09 01:29 | 13.87353 | 121.80602 | 22083 ft | 414 kts | 138° |
| 2026-05-09 01:29 | 13.85089 | 121.82446 | 22388 ft | 417 kts | 141° |
| 2026-05-09 01:29 | 13.82732 | 121.84232 | 22698 ft | 419 kts | 142° |
| 2026-05-09 01:29 | 13.80389 | 121.85995 | 23000 ft | 420 kts | 142° |
| 2026-05-09 01:30 | 13.78027 | 121.87773 | 23300 ft | 422 kts | 142° |
| 2026-05-09 01:30 | 13.75657 | 121.89559 | 23596 ft | 424 kts | 142° |
| 2026-05-09 01:30 | 13.73265 | 121.91361 | 23890 ft | 426 kts | 142° |
| 2026-05-09 01:30 | 13.70868 | 121.93169 | 24178 ft | 427 kts | 142° |
| 2026-05-09 01:31 | 13.68466 | 121.94979 | 24461 ft | 429 kts | 142° |
| 2026-05-09 01:31 | 13.66056 | 121.96794 | 24736 ft | 431 kts | 142° |
| 2026-05-09 01:31 | 13.63627 | 121.98625 | 25002 ft | 432 kts | 142° |
| 2026-05-09 01:31 | 13.61176 | 122.00470 | 25266 ft | 434 kts | 142° |
| 2026-05-09 01:32 | 13.59420 | 122.01793 | 25445 ft | 436 kts | 142° |
| 2026-05-09 01:32 | 13.57523 | 122.03222 | 25631 ft | 437 kts | 142° |
| 2026-05-09 01:32 | 13.55046 | 122.05087 | 25871 ft | 439 kts | 142° |
| 2026-05-09 01:32 | 13.52580 | 122.06942 | 26128 ft | 441 kts | 142° |
| 2026-05-09 01:33 | 13.50082 | 122.08823 | 26357 ft | 443 kts | 142° |
| 2026-05-09 01:33 | 13.47605 | 122.10690 | 26528 ft | 447 kts | 143° |
| 2026-05-09 01:33 | 13.45095 | 122.12584 | 26694 ft | 450 kts | 143° |
| 2026-05-09 01:33 | 13.42533 | 122.14510 | 26935 ft | 452 kts | 143° |
| 2026-05-09 01:34 | 13.40021 | 122.16393 | 27182 ft | 453 kts | 143° |
| 2026-05-09 01:34 | 13.37461 | 122.18320 | 27413 ft | 454 kts | 144° |
| 2026-05-09 01:34 | 13.34915 | 122.20233 | 27654 ft | 456 kts | 144° |
| 2026-05-09 01:34 | 13.32355 | 122.22154 | 27882 ft | 457 kts | 144° |
| 2026-05-09 01:35 | 13.29771 | 122.24092 | 28115 ft | 458 kts | 144° |
| 2026-05-09 01:35 | 13.27177 | 122.26038 | 28333 ft | 460 kts | 144° |
| 2026-05-09 01:35 | 13.24594 | 122.27978 | 28532 ft | 462 kts | 144° |
| 2026-05-09 01:35 | 13.21997 | 122.29926 | 28748 ft | 463 kts | 144° |
| 2026-05-09 01:36 | 13.19392 | 122.31879 | 28972 ft | 464 kts | 144° |
| 2026-05-09 01:36 | 13.16789 | 122.33830 | 29184 ft | 465 kts | 144° |
| 2026-05-09 01:36 | 13.14172 | 122.35791 | 29387 ft | 466 kts | 144° |
| 2026-05-09 01:36 | 13.11556 | 122.37751 | 29589 ft | 467 kts | 144° |
| 2026-05-09 01:37 | 13.08928 | 122.39720 | 29781 ft | 468 kts | 144° |
| 2026-05-09 01:37 | 13.06296 | 122.41692 | 29964 ft | 468 kts | 144° |
| 2026-05-09 01:37 | 13.03661 | 122.43665 | 30144 ft | 469 kts | 144° |
| 2026-05-09 01:37 | 13.01027 | 122.45637 | 30327 ft | 470 kts | 144° |
| 2026-05-09 01:38 | 12.98394 | 122.47609 | 30500 ft | 470 kts | 144° |
| 2026-05-09 01:38 | 12.95754 | 122.49584 | 30667 ft | 471 kts | 144° |
| 2026-05-09 01:38 | 12.93082 | 122.51585 | 30821 ft | 471 kts | 144° |
| 2026-05-09 01:38 | 12.90446 | 122.53555 | 30901 ft | 472 kts | 144° |
| 2026-05-09 01:39 | 12.85130 | 122.57531 | 30909 ft | 472 kts | 144° |
| 2026-05-09 01:39 | 12.79805 | 122.61511 | 30908 ft | 473 kts | 144° |
| 2026-05-09 01:40 | 12.74456 | 122.65507 | 30903 ft | 473 kts | 144° |
| 2026-05-09 01:40 | 12.69151 | 122.69466 | 30901 ft | 473 kts | 144° |
| 2026-05-09 01:41 | 12.63816 | 122.73447 | 30900 ft | 472 kts | 144° |
| 2026-05-09 01:41 | 12.58524 | 122.77396 | 30899 ft | 472 kts | 145° |
| 2026-05-09 01:42 | 12.53210 | 122.81356 | 30902 ft | 473 kts | 145° |
| 2026-05-09 01:42 | 12.47870 | 122.85336 | 30903 ft | 473 kts | 144° |
| 2026-05-09 01:43 | 12.42548 | 122.89301 | 30902 ft | 473 kts | 144° |
| 2026-05-09 01:43 | 12.37231 | 122.93264 | 30901 ft | 473 kts | 145° |
| 2026-05-09 01:44 | 12.31937 | 122.97203 | 30904 ft | 473 kts | 145° |
| 2026-05-09 01:44 | 12.26594 | 123.01164 | 30902 ft | 473 kts | 145° |
| 2026-05-09 01:45 | 12.21255 | 123.05122 | 30905 ft | 473 kts | 145° |
| 2026-05-09 01:45 | 12.15938 | 123.09069 | 30904 ft | 473 kts | 145° |
| 2026-05-09 01:46 | 12.10635 | 123.13006 | 30907 ft | 473 kts | 145° |
| 2026-05-09 01:46 | 12.05318 | 123.16949 | 30906 ft | 472 kts | 145° |
| 2026-05-09 01:47 | 11.99981 | 123.20905 | 30906 ft | 472 kts | 145° |
| 2026-05-09 01:47 | 11.94673 | 123.24840 | 30904 ft | 472 kts | 145° |
| 2026-05-09 01:48 | 11.89352 | 123.28781 | 30905 ft | 472 kts | 145° |
| 2026-05-09 01:48 | 11.84230 | 123.32573 | 30902 ft | 472 kts | 145° |
| 2026-05-09 01:49 | 11.78912 | 123.36510 | 30898 ft | 472 kts | 145° |
| 2026-05-09 01:49 | 11.73578 | 123.40455 | 30898 ft | 472 kts | 145° |
| 2026-05-09 01:50 | 11.68272 | 123.44378 | 30897 ft | 471 kts | 145° |
| 2026-05-09 01:50 | 11.62968 | 123.48299 | 30895 ft | 471 kts | 145° |
| 2026-05-09 01:51 | 11.57673 | 123.52209 | 30893 ft | 470 kts | 145° |
| 2026-05-09 01:51 | 11.52374 | 123.56121 | 30893 ft | 471 kts | 145° |
| 2026-05-09 01:52 | 11.47066 | 123.60040 | 30894 ft | 470 kts | 145° |
| 2026-05-09 01:52 | 11.41758 | 123.63956 | 30892 ft | 470 kts | 145° |
| 2026-05-09 01:53 | 11.36448 | 123.67872 | 30890 ft | 470 kts | 145° |
| 2026-05-09 01:53 | 11.31143 | 123.71784 | 30889 ft | 470 kts | 145° |
| 2026-05-09 01:54 | 11.25848 | 123.75690 | 30888 ft | 470 kts | 145° |
| 2026-05-09 01:54 | 11.20565 | 123.79579 | 30888 ft | 470 kts | 146° |
| 2026-05-09 01:55 | 11.14929 | 123.82939 | 30885 ft | 468 kts | 155° |
| 2026-05-09 01:55 | 11.08798 | 123.85235 | 30887 ft | 467 kts | 166° |
| 2026-05-09 01:56 | 11.02421 | 123.86534 | 30886 ft | 467 kts | 171° |
| 2026-05-09 01:56 | 10.96006 | 123.87632 | 30890 ft | 467 kts | 171° |
| 2026-05-09 01:57 | 10.89607 | 123.88732 | 30886 ft | 467 kts | 171° |
| 2026-05-09 01:57 | 10.83155 | 123.89851 | 30887 ft | 466 kts | 171° |
| 2026-05-09 01:58 | 10.76739 | 123.90965 | 30884 ft | 466 kts | 171° |
| 2026-05-09 01:58 | 10.70365 | 123.92070 | 30884 ft | 467 kts | 171° |
| 2026-05-09 01:59 | 10.63914 | 123.93185 | 30890 ft | 467 kts | 171° |
| 2026-05-09 01:59 | 10.57483 | 123.94296 | 30895 ft | 468 kts | 171° |
| 2026-05-09 02:00 | 10.51045 | 123.95412 | 30901 ft | 468 kts | 171° |
| 2026-05-09 02:00 | 10.44624 | 123.96526 | 30900 ft | 468 kts | 171° |
| 2026-05-09 02:01 | 10.38164 | 123.97646 | 30897 ft | 469 kts | 171° |
| 2026-05-09 02:01 | 10.31743 | 123.98887 | 30894 ft | 469 kts | 167° |
| 2026-05-09 02:02 | 10.25486 | 124.00727 | 30891 ft | 469 kts | 162° |
| 2026-05-09 02:02 | 10.19252 | 124.02782 | 30884 ft | 470 kts | 162° |
| 2026-05-09 02:03 | 10.16126 | 124.03816 | 30754 ft | 471 kts | 162° |
| 2026-05-09 02:03 | 10.13037 | 124.04835 | 30261 ft | 469 kts | 162° |
| 2026-05-09 02:03 | 10.09926 | 124.05860 | 29285 ft | 473 kts | 162° |
| 2026-05-09 02:03 | 10.06748 | 124.06905 | 28270 ft | 474 kts | 162° |
| 2026-05-09 02:04 | 10.03657 | 124.07921 | 27697 ft | 466 kts | 162° |
| 2026-05-09 02:04 | 10.00591 | 124.08928 | 27159 ft | 458 kts | 161° |
| 2026-05-09 02:04 | 9.97595 | 124.09910 | 26631 ft | 451 kts | 161° |
| 2026-05-09 02:04 | 9.94600 | 124.10889 | 26102 ft | 444 kts | 161° |
| 2026-05-09 02:05 | 9.91693 | 124.11840 | 25586 ft | 438 kts | 161° |
| 2026-05-09 02:05 | 9.88822 | 124.12781 | 25071 ft | 432 kts | 160° |
| 2026-05-09 02:05 | 9.85958 | 124.13720 | 24556 ft | 426 kts | 160° |
| 2026-05-09 02:05 | 9.83107 | 124.14656 | 24039 ft | 421 kts | 160° |
| 2026-05-09 02:06 | 9.80349 | 124.15561 | 23537 ft | 416 kts | 160° |
| 2026-05-09 02:06 | 9.77601 | 124.16462 | 23050 ft | 410 kts | 159° |
| 2026-05-09 02:06 | 9.74899 | 124.17349 | 22572 ft | 406 kts | 159° |
| 2026-05-09 02:07 | 9.69570 | 124.19099 | 21613 ft | 397 kts | 159° |
| 2026-05-09 02:07 | 9.66971 | 124.19953 | 21105 ft | 394 kts | 159° |
| 2026-05-09 02:07 | 9.64383 | 124.20805 | 20581 ft | 392 kts | 159° |
| 2026-05-09 02:07 | 9.61757 | 124.21667 | 20044 ft | 390 kts | 159° |
| 2026-05-09 02:08 | 9.59195 | 124.22508 | 19510 ft | 388 kts | 159° |
| 2026-05-09 02:08 | 9.56635 | 124.23347 | 18972 ft | 387 kts | 159° |
| 2026-05-09 02:08 | 9.54055 | 124.24193 | 18420 ft | 386 kts | 159° |
| 2026-05-09 02:08 | 9.51514 | 124.25024 | 17880 ft | 385 kts | 159° |
| 2026-05-09 02:09 | 9.48986 | 124.25851 | 17329 ft | 384 kts | 159° |
| 2026-05-09 02:09 | 9.46418 | 124.26689 | 16799 ft | 383 kts | 159° |
| 2026-05-09 02:09 | 9.43906 | 124.27512 | 16298 ft | 381 kts | 159° |
| 2026-05-09 02:09 | 9.41364 | 124.28344 | 15804 ft | 379 kts | 159° |
| 2026-05-09 02:10 | 9.38870 | 124.29160 | 15315 ft | 377 kts | 159° |
| 2026-05-09 02:10 | 9.36362 | 124.29981 | 14829 ft | 374 kts | 159° |
| 2026-05-09 02:10 | 9.33914 | 124.30782 | 14349 ft | 372 kts | 160° |
| 2026-05-09 02:10 | 9.31434 | 124.31594 | 13863 ft | 369 kts | 160° |
| 2026-05-09 02:11 | 9.29022 | 124.32384 | 13397 ft | 366 kts | 160° |
| 2026-05-09 02:11 | 9.26617 | 124.33170 | 12930 ft | 362 kts | 160° |
| 2026-05-09 02:11 | 9.24220 | 124.33951 | 12439 ft | 360 kts | 160° |
| 2026-05-09 02:11 | 9.21824 | 124.34733 | 11936 ft | 357 kts | 160° |
| 2026-05-09 02:12 | 9.19484 | 124.35497 | 11441 ft | 355 kts | 160° |
| 2026-05-09 02:12 | 9.17109 | 124.36273 | 10935 ft | 352 kts | 160° |
| 2026-05-09 02:12 | 9.14815 | 124.37023 | 10543 ft | 345 kts | 160° |
| 2026-05-09 02:12 | 9.12551 | 124.37762 | 10339 ft | 332 kts | 159° |
| 2026-05-09 02:13 | 9.10387 | 124.38469 | 10187 ft | 319 kts | 159° |
| 2026-05-09 02:13 | 9.08296 | 124.39150 | 10038 ft | 307 kts | 159° |
| 2026-05-09 02:13 | 9.06326 | 124.39794 | 9967 ft | 295 kts | 159° |
| 2026-05-09 02:13 | 9.04355 | 124.40438 | 9960 ft | 295 kts | 161° |
| 2026-05-09 02:14 | 9.02322 | 124.40707 | 9934 ft | 300 kts | 184° |
| 2026-05-09 02:14 | 9.00289 | 124.40094 | 9960 ft | 305 kts | 202° |
| 2026-05-09 02:14 | 8.98381 | 124.39172 | 9953 ft | 305 kts | 204° |
| 2026-05-09 02:14 | 8.96471 | 124.38233 | 9954 ft | 304 kts | 204° |
| 2026-05-09 02:15 | 8.94546 | 124.37301 | 9563 ft | 311 kts | 203° |
| 2026-05-09 02:15 | 8.92507 | 124.36334 | 8272 ft | 341 kts | 203° |
| 2026-05-09 02:15 | 8.90331 | 124.35314 | 6849 ft | 356 kts | 203° |
| 2026-05-09 02:15 | 8.88098 | 124.34265 | 5995 ft | 344 kts | 203° |
| 2026-05-09 02:16 | 8.86022 | 124.33286 | 5746 ft | 315 kts | 203° |
| 2026-05-09 02:16 | 8.84115 | 124.32387 | 5533 ft | 294 kts | 203° |
| 2026-05-09 02:16 | 8.82250 | 124.31510 | 5245 ft | 286 kts | 203° |
| 2026-05-09 02:16 | 8.80471 | 124.30675 | 4940 ft | 281 kts | 203° |
| 2026-05-09 02:17 | 8.78706 | 124.29848 | 4627 ft | 278 kts | 203° |
| 2026-05-09 02:17 | 8.76952 | 124.29026 | 4306 ft | 276 kts | 203° |
| 2026-05-09 02:17 | 8.75212 | 124.28209 | 3988 ft | 274 kts | 203° |
| 2026-05-09 02:17 | 8.73467 | 124.27389 | 3659 ft | 273 kts | 203° |
| 2026-05-09 02:18 | 8.71762 | 124.26589 | 3539 ft | 262 kts | 202° |
| 2026-05-09 02:18 | 8.70086 | 124.26102 | 3449 ft | 245 kts | 175° |
| 2026-05-09 02:18 | 8.68560 | 124.26618 | 3377 ft | 225 kts | 135° |
| 2026-05-09 02:18 | 8.67605 | 124.27781 | 3355 ft | 208 kts | 123° |
| 2026-05-09 02:19 | 8.66733 | 124.28941 | 3268 ft | 206 kts | 126° |
| 2026-05-09 02:19 | 8.65822 | 124.30070 | 3150 ft | 205 kts | 127° |
| 2026-05-09 02:19 | 8.64905 | 124.31158 | 3088 ft | 195 kts | 127° |
| 2026-05-09 02:19 | 8.64036 | 124.32172 | 2878 ft | 188 kts | 128° |
| 2026-05-09 02:20 | 8.63178 | 124.33167 | 2551 ft | 188 kts | 128° |
| 2026-05-09 02:20 | 8.62322 | 124.34155 | 2294 ft | 179 kts | 128° |
| 2026-05-09 02:20 | 8.61536 | 124.35057 | 2055 ft | 165 kts | 127° |
| 2026-05-09 02:20 | 8.60810 | 124.35896 | 1805 ft | 153 kts | 124° |
| 2026-05-09 02:21 | 8.60453 | 124.36804 | 1572 ft | 134 kts | 85° |
| 2026-05-09 02:21 | 8.60536 | 124.37743 | 1431 ft | 134 kts | 82° |
| 2026-05-09 02:21 | 8.60632 | 124.38680 | 1298 ft | 134 kts | 81° |
| 2026-05-09 02:21 | 8.60711 | 124.39633 | 1162 ft | 135 kts | 83° |
| 2026-05-09 02:22 | 8.60788 | 124.40569 | 988 ft | 133 kts | 81° |
| 2026-05-09 02:22 | 8.60874 | 124.41487 | 822 ft | 132 kts | 81° |
| 2026-05-09 02:22 | 8.60952 | 124.42416 | 655 ft | 133 kts | 83° |
| 2026-05-09 02:22 | 8.61038 | 124.43340 | 478 ft | 132 kts | 81° |
| 2026-05-09 02:23 | 8.61111 | 124.44267 | 287 ft | 132 kts | 83° |
| 2026-05-09 02:23 | 8.61183 | 124.45175 | 195 ft | 121 kts | 82° |
| 2026-05-09 02:23 | 8.61245 | 124.45888 | 195 ft | 84 kts | 87° |
| 2026-05-09 02:23 | 8.61283 | 124.46362 | 195 ft | 45 kts | 87° |
| 2026-05-09 02:24 | 8.61287 | 124.46542 | 195 ft | 14 kts | 127° |
| 2026-05-09 02:24 | 8.61284 | 124.46587 | 195 ft | 6 kts | 294° |
| 2026-05-09 02:24 | 8.61289 | 124.46530 | 195 ft | 8 kts | 266° |
| 2026-05-09 02:24 | 8.61284 | 124.46466 | 195 ft | 9 kts | 266° |
| 2026-05-09 02:25 | 8.61279 | 124.46393 | 195 ft | 11 kts | 265° |
| 2026-05-09 02:25 | 8.61271 | 124.46304 | 195 ft | 15 kts | 265° |
| 2026-05-09 02:25 | 8.61262 | 124.46180 | 195 ft | 18 kts | 265° |
| 2026-05-09 02:25 | 8.61252 | 124.46052 | 195 ft | 15 kts | 265° |
| 2026-05-09 02:26 | 8.61231 | 124.45978 | 195 ft | 11 kts | 222° |
| 2026-05-09 02:26 | 8.61153 | 124.45966 | 195 ft | 12 kts | 175° |
| 2026-05-09 02:26 | 8.61065 | 124.45974 | 195 ft | 9 kts | 174° |
| 2026-05-09 02:26 | 8.61010 | 124.45947 | 195 ft | 9 kts | 242° |
| 2026-05-09 02:27 | 8.61000 | 124.45874 | 195 ft | 11 kts | 266° |
| 2026-05-09 02:27 | 8.60994 | 124.45802 | 195 ft | 7 kts | 261° |
| 2026-05-09 02:27 | 8.60952 | 124.45776 | 195 ft | 8 kts | 176° |
| 2026-05-09 02:27 | 8.60920 | 124.45778 | 195 ft | 2 kts | 174° |
| 2026-05-09 02:28 | 8.60910 | 124.45779 | 195 ft | 0 kts | 175° |
| 2026-05-09 02:28 | 8.60906 | 124.45779 | 195 ft | 0 kts | 175° |